createdAt,value
2017-07-19T15:49:23.724Z,25.8
2017-07-19T15:50:25.598Z,25.6
2017-07-19T15:51:27.352Z,25.5
2017-07-19T15:52:29.173Z,25.4
2017-07-19T15:53:30.882Z,25.5
2017-07-19T15:54:32.721Z,25.3
2017-07-19T15:55:34.480Z,25.5
2017-07-19T15:56:36.322Z,25.5
2017-07-19T15:57:37.936Z,25.2
2017-07-19T15:58:39.609Z,25.0
2017-07-19T15:59:42.111Z,24.7
2017-07-19T16:00:43.796Z,24.5
2017-07-19T16:01:45.473Z,24.4
2017-07-19T16:02:47.151Z,24.4
2017-07-19T16:03:48.824Z,24.5
2017-07-19T16:04:50.609Z,24.1
2017-07-19T16:05:52.377Z,24.5
2017-07-19T16:06:54.083Z,24.1
2017-07-19T16:07:56.109Z,23.7
2017-07-19T16:08:57.842Z,23.8
2017-07-19T16:09:59.548Z,23.6
2017-07-19T16:11:01.271Z,23.6
2017-07-19T16:12:02.899Z,23.5
2017-07-19T16:13:04.548Z,23.4
2017-07-19T16:14:06.519Z,23.3
2017-07-19T16:15:08.305Z,23.0
2017-07-19T16:16:10.941Z,22.8
2017-07-19T16:17:13.642Z,22.6
2017-07-19T16:18:16.647Z,22.6
2017-07-19T16:19:19.839Z,22.6
2017-07-19T16:20:22.794Z,22.6
2017-07-19T16:21:25.473Z,22.8
2017-07-19T16:22:28.502Z,22.8
2017-07-19T16:23:30.587Z,22.6
2017-07-19T16:24:33.311Z,22.6
2017-07-19T16:25:36.101Z,22.4
2017-07-19T16:26:39.098Z,22.5
2017-07-19T16:27:41.888Z,22.6
2017-07-19T16:28:45.554Z,22.5
2017-07-19T16:29:48.816Z,22.5
2017-07-19T16:30:51.506Z,22.5
2017-07-19T16:31:54.194Z,22.6
2017-07-19T16:32:57.354Z,22.6
2017-07-19T16:33:59.927Z,22.4
2017-07-19T16:35:02.620Z,22.6
2017-07-19T16:36:05.363Z,22.5
2017-07-19T16:37:08.375Z,22.6
2017-07-19T16:38:11.188Z,22.6
2017-07-19T16:39:14.729Z,22.6
2017-07-19T16:40:18.111Z,22.5
2017-07-19T16:41:20.963Z,22.5
2017-07-19T16:42:23.974Z,22.7
2017-07-19T16:43:27.303Z,22.7
2017-07-19T16:44:29.947Z,22.8
2017-07-19T16:45:33.199Z,22.6
2017-07-19T16:46:37.269Z,22.7
2017-07-19T16:49:57.473Z,22.8
2017-07-19T16:51:01.792Z,22.9
2017-07-19T16:52:06.074Z,23.0
2017-07-19T16:53:10.022Z,22.9
2017-07-19T16:54:15.567Z,23.1
2017-07-19T16:55:19.930Z,23.1
2017-07-19T16:56:24.277Z,23.0
2017-07-19T16:57:27.847Z,23.1
2017-07-19T18:50:15.395Z,24.2
2017-07-19T19:15:38.809Z,24.2
2017-07-19T19:16:41.639Z,24.0
2017-07-19T19:17:44.025Z,24.2
2017-07-19T19:18:46.742Z,24.0
2017-07-19T19:19:48.914Z,24.0
2017-07-19T19:20:51.933Z,24.1
2017-07-19T19:21:54.695Z,24.1
2017-07-19T19:22:57.680Z,24.0
2017-07-19T19:25:10.759Z,23.7
2017-07-19T19:28:34.050Z,23.6
2017-07-19T19:29:36.496Z,23.8
2017-07-19T19:30:38.942Z,23.6
2017-07-19T19:31:41.756Z,23.7
2017-07-19T19:32:45.223Z,23.7
2017-07-19T19:33:48.649Z,23.8
2017-07-19T19:34:51.915Z,23.5
2017-07-19T19:35:54.808Z,23.5
2017-07-19T19:36:58.804Z,23.6
2017-07-19T19:38:01.208Z,23.6
2017-07-19T19:39:03.666Z,23.8
2017-07-19T19:40:06.014Z,23.6
2017-07-19T19:41:08.514Z,23.6
2017-07-19T19:42:10.781Z,23.6
2017-07-19T19:43:13.224Z,23.6
2017-07-19T19:44:15.331Z,23.4
2017-07-19T19:45:20.014Z,23.4
2017-07-19T19:46:22.689Z,23.3
2017-07-19T19:47:25.232Z,23.4
2017-07-19T19:48:28.069Z,23.3
2017-07-19T19:49:30.931Z,23.4
2017-07-19T19:50:33.532Z,23.3
2017-07-19T19:51:37.105Z,23.4
2017-07-19T19:52:39.406Z,23.5
2017-07-19T19:53:42.790Z,23.7
2017-07-19T19:54:45.120Z,23.6
2017-07-19T19:55:47.273Z,23.6
2017-07-19T19:56:50.925Z,23.4
2017-07-19T19:57:53.276Z,23.4
2017-07-19T19:58:55.840Z,23.5
2017-07-19T19:59:58.189Z,23.5
2017-07-19T20:01:01.989Z,23.5
2017-07-19T20:02:06.738Z,23.3
2017-07-19T20:03:10.386Z,23.4
2017-07-19T20:04:14.456Z,23.2
2017-07-19T20:05:19.328Z,23.2
2017-07-19T20:06:25.248Z,23.1
2017-07-19T20:07:31.871Z,23.2
2017-07-19T20:08:37.604Z,23.2
2017-07-19T20:09:43.408Z,23.2
2017-07-19T20:10:48.296Z,23.1
2017-07-19T20:11:54.957Z,23.2
2017-07-19T20:13:01.122Z,23.2
2017-07-19T20:14:04.000Z,23.0
2017-07-19T20:15:07.384Z,23.1
2017-07-19T20:16:10.705Z,23.1
2017-07-19T20:17:13.319Z,23.2
2017-07-19T20:18:16.354Z,23.1
2017-07-19T20:19:24.927Z,23.0
